createdAt,value
2022-11-18T00:05:41.313Z,3.80
2022-11-18T00:08:45.344Z,3.90
2022-11-18T00:15:06.256Z,4.07
2022-11-18T00:18:11.920Z,4.35
2022-11-18T00:21:15.738Z,3.88
2022-11-18T00:24:19.601Z,4.28
2022-11-18T00:30:26.848Z,4.28
2022-11-18T00:33:32.822Z,4.28
2022-11-18T00:36:36.547Z,5.07
2022-11-18T00:39:40.241Z,4.57
2022-11-18T00:42:53.221Z,4.20
2022-11-18T00:45:57.463Z,4.15
2022-11-18T00:49:03.066Z,4.72
2022-11-18T00:52:06.937Z,4.82
2022-11-18T00:55:11.269Z,4.35
2022-11-18T00:58:15.614Z,5.55
2022-11-18T01:01:19.394Z,4.53
2022-11-18T01:04:25.083Z,4.20
2022-11-18T01:07:28.811Z,5.00
2022-11-18T01:10:32.614Z,4.70
2022-11-18T01:13:34.351Z,4.60
2022-11-18T01:16:38.049Z,4.55
2022-11-18T01:19:43.788Z,4.93
2022-11-18T01:22:47.480Z,4.70
2022-11-18T01:25:52.279Z,4.97
2022-11-18T01:28:57.960Z,5.53
2022-11-18T01:32:23.380Z,4.80
2022-11-18T01:35:27.180Z,5.20
2022-11-18T01:38:30.948Z,5.28
2022-11-18T01:41:34.667Z,4.90
2022-11-18T01:45:04.454Z,5.45
2022-11-18T01:48:12.630Z,4.53
2022-11-18T01:51:21.346Z,5.35
2022-11-18T01:54:28.846Z,4.70
2022-11-18T01:57:32.738Z,6.30
2022-11-18T02:03:41.125Z,5.85
2022-11-18T02:06:48.391Z,5.55
2022-11-18T02:09:53.405Z,5.28
2022-11-18T02:12:58.340Z,6.00
2022-11-18T02:16:10.091Z,6.03
2022-11-18T02:19:33.867Z,5.72
2022-11-18T02:22:55.261Z,5.40
2022-11-18T02:26:28.153Z,5.68
2022-11-18T02:29:39.426Z,5.88
2022-11-18T02:32:45.800Z,6.82
2022-11-18T02:35:55.515Z,6.05
2022-11-18T02:39:04.595Z,6.28
2022-11-18T02:42:12.123Z,6.32
2022-11-18T02:45:20.508Z,6.15
2022-11-18T02:48:26.183Z,6.03
2022-11-18T02:51:32.980Z,6.15
2022-11-18T02:54:40.812Z,6.85
2022-11-18T02:57:46.268Z,6.35
2022-11-18T03:00:57.557Z,5.72
2022-11-18T03:04:01.533Z,5.95
2022-11-18T03:07:12.603Z,6.32
2022-11-18T03:10:16.671Z,5.82
2022-11-18T03:16:33.251Z,6.07
2022-11-18T03:19:48.972Z,7.15
2022-11-18T03:22:57.779Z,7.05
2022-11-18T03:26:04.381Z,7.90
2022-11-18T03:29:14.300Z,8.23
2022-11-18T03:32:25.847Z,8.10
2022-11-18T03:35:33.795Z,8.90
2022-11-18T03:38:41.662Z,8.65
2022-11-18T03:41:50.340Z,9.98
2022-11-18T03:44:57.074Z,9.52
2022-11-18T03:48:09.039Z,10.40
2022-11-18T03:51:16.353Z,12.25
2022-11-18T03:54:24.792Z,13.20
2022-11-18T03:57:36.516Z,13.45
2022-11-18T04:00:44.567Z,14.82
2022-11-18T04:03:50.253Z,13.98
2022-11-18T04:06:59.704Z,15.05
2022-11-18T04:10:10.359Z,15.77
2022-11-18T04:13:20.129Z,14.55
2022-11-18T04:16:23.798Z,16.10
2022-11-18T04:19:30.302Z,15.82
2022-11-18T04:22:34.024Z,17.02
2022-11-18T04:25:38.218Z,15.70
2022-11-18T04:28:41.856Z,15.95
2022-11-18T04:31:45.615Z,16.05
2022-11-18T04:34:51.196Z,15.25
2022-11-18T04:37:55.000Z,15.52
2022-11-18T04:40:58.652Z,16.75
2022-11-18T04:44:12.277Z,16.85
2022-11-18T04:47:15.940Z,16.48
2022-11-18T04:50:21.598Z,15.90
2022-11-18T04:53:25.293Z,16.90
2022-11-18T04:56:29.046Z,17.45
2022-11-18T04:59:32.812Z,17.20
2022-11-18T05:02:36.473Z,16.75
2022-11-18T05:05:42.123Z,15.68
2022-11-18T05:08:45.992Z,15.75
2022-11-18T05:12:03.278Z,17.75
2022-11-18T05:15:08.135Z,17.48
2022-11-18T05:18:13.289Z,16.88
2022-11-18T05:21:18.973Z,17.27
2022-11-18T05:24:23.691Z,17.15
2022-11-18T05:27:27.623Z,15.23
2022-11-18T05:33:34.746Z,16.33
2022-11-18T05:36:40.352Z,15.40
2022-11-18T05:39:44.057Z,16.63
2022-11-18T05:43:00.880Z,16.23
2022-11-18T05:46:05.578Z,16.17
2022-11-18T05:49:09.436Z,16.73
2022-11-18T05:52:15.031Z,16.98
2022-11-18T05:55:19.492Z,16.40
2022-11-18T05:58:25.288Z,15.10
2022-11-18T06:01:34.078Z,15.55
2022-11-18T06:04:41.979Z,17.50
2022-11-18T06:07:47.952Z,16.17
2022-11-18T06:10:52.611Z,16.65
2022-11-18T06:14:02.719Z,17.30
2022-11-18T06:17:10.952Z,15.20
2022-11-18T06:20:14.999Z,15.93
2022-11-18T06:23:20.852Z,16.23
2022-11-18T06:26:24.496Z,16.45
2022-11-18T06:29:29.423Z,15.73
2022-11-18T06:32:33.510Z,16.63
2022-11-18T06:35:37.254Z,15.45
2022-11-18T06:38:42.874Z,17.58
2022-11-18T06:41:46.561Z,16.35
2022-11-18T06:44:50.267Z,18.63
2022-11-18T06:47:57.555Z,15.88
2022-11-18T06:51:01.308Z,16.98
2022-11-18T06:54:10.709Z,17.00
2022-11-18T06:57:15.083Z,17.48
2022-11-18T07:03:22.979Z,15.80
2022-11-18T07:06:29.081Z,16.90
2022-11-18T07:09:35.781Z,16.45
2022-11-18T07:12:39.507Z,17.00
2022-11-18T07:15:43.450Z,16.10
2022-11-18T07:21:51.098Z,15.45
2022-11-18T07:24:57.191Z,17.58
2022-11-18T07:28:00.979Z,17.02
2022-11-18T07:31:05.924Z,16.52
2022-11-18T07:34:09.708Z,16.70
2022-11-18T07:37:13.398Z,16.70
2022-11-18T07:40:19.534Z,16.33
2022-11-18T07:43:23.261Z,17.10
2022-11-18T07:46:28.963Z,17.55
2022-11-18T07:49:32.607Z,17.10
2022-11-18T07:52:36.272Z,16.58
2022-11-18T07:55:41.925Z,16.48
2022-11-18T07:58:46.037Z,16.40
2022-11-18T08:01:49.737Z,16.55
2022-11-18T08:04:53.521Z,15.55
2022-11-18T08:07:57.222Z,16.70
2022-11-18T08:11:05.437Z,16.35
2022-11-18T08:14:09.284Z,15.00
2022-11-18T08:17:12.974Z,16.05
2022-11-18T08:20:17.046Z,16.13
2022-11-18T08:23:20.809Z,14.90
2022-11-18T08:26:27.075Z,15.93
2022-11-18T08:29:32.953Z,15.23
2022-11-18T08:32:36.855Z,15.93
2022-11-18T08:38:44.227Z,14.93
2022-11-18T08:41:49.967Z,15.50
2022-11-18T08:44:54.166Z,13.82
2022-11-18T08:47:57.882Z,15.60
2022-11-18T08:51:02.126Z,14.88
2022-11-18T08:54:06.307Z,15.65
2022-11-18T08:57:11.960Z,14.15
2022-11-18T09:00:16.945Z,14.77
2022-11-18T09:03:20.677Z,14.85
2022-11-18T09:06:25.900Z,15.00
2022-11-18T09:09:29.619Z,15.13
2022-11-18T09:12:35.316Z,15.55
2022-11-18T09:15:39.013Z,15.13
2022-11-18T09:18:42.783Z,14.27
2022-11-18T09:21:46.522Z,14.10
2022-11-18T09:24:50.276Z,15.25
2022-11-18T09:27:55.898Z,15.32
2022-11-18T09:30:59.632Z,14.75
2022-11-18T09:34:03.422Z,13.57
2022-11-18T09:37:07.505Z,13.65
2022-11-18T09:40:17.853Z,13.32
2022-11-18T09:43:30.092Z,13.63
2022-11-18T09:46:44.834Z,13.15
2022-11-18T09:49:50.074Z,13.35
2022-11-18T09:53:06.056Z,12.68
2022-11-18T09:56:15.871Z,12.52
2022-11-18T09:59:23.337Z,12.38
2022-11-18T10:02:39.320Z,11.45
2022-11-18T10:05:49.600Z,12.65
2022-11-18T10:09:14.442Z,12.02
2022-11-18T10:12:28.344Z,11.38
2022-11-18T10:15:38.837Z,11.98
2022-11-18T10:19:05.096Z,11.25
2022-11-18T10:22:24.359Z,11.20
2022-11-18T10:25:28.589Z,10.95
2022-11-18T10:28:32.675Z,11.82
2022-11-18T10:31:40.562Z,10.63
2022-11-18T10:34:50.676Z,10.60
2022-11-18T10:38:08.127Z,11.43
2022-11-18T10:41:16.058Z,10.13
2022-11-18T10:44:34.889Z,10.52
2022-11-18T10:47:41.032Z,10.55
2022-11-18T10:50:55.269Z,10.60
2022-11-18T10:54:09.724Z,9.85
2022-11-18T10:57:20.438Z,9.60
2022-11-18T11:00:40.752Z,9.35
2022-11-18T11:03:58.468Z,9.20
2022-11-18T11:07:17.105Z,8.27
2022-11-18T11:10:23.850Z,8.02
2022-11-18T11:13:31.786Z,7.90
2022-11-18T11:16:46.013Z,8.38
2022-11-18T11:19:58.393Z,8.55
2022-11-18T11:23:02.400Z,8.35
2022-11-18T11:30:04.849Z,10.35
2022-11-18T11:33:24.094Z,11.07
2022-11-18T11:36:39.245Z,11.50
2022-11-18T11:39:55.382Z,12.10
2022-11-18T11:43:24.592Z,11.05
2022-11-18T11:46:35.421Z,10.23
2022-11-18T11:49:53.586Z,12.05
2022-11-18T11:53:16.653Z,11.73
2022-11-18T11:56:27.311Z,10.77
2022-11-18T11:59:38.668Z,11.65
2022-11-18T12:02:59.539Z,10.80
2022-11-18T12:06:03.308Z,10.70
2022-11-18T12:09:18.615Z,11.25
2022-11-18T12:12:37.520Z,11.65
2022-11-18T12:15:57.976Z,11.52
2022-11-18T12:19:08.437Z,9.38
2022-11-18T12:22:12.089Z,9.40
2022-11-18T12:25:46.247Z,9.10
2022-11-18T12:28:51.943Z,7.57
2022-11-18T12:31:57.301Z,7.43
2022-11-18T12:35:03.842Z,7.57
2022-11-18T12:38:07.608Z,8.07
2022-11-18T12:41:54.351Z,8.93
2022-11-18T12:45:34.996Z,8.70
2022-11-18T12:48:41.457Z,8.25
2022-11-18T12:51:45.723Z,9.52
2022-11-18T12:54:50.636Z,9.35
2022-11-18T12:57:54.392Z,8.75
2022-11-18T13:01:13.371Z,9.07
2022-11-18T13:04:19.516Z,10.82
2022-11-18T13:07:36.507Z,10.95
2022-11-18T13:10:50.535Z,10.68
2022-11-18T13:14:12.099Z,11.13
2022-11-18T13:17:42.567Z,10.82
2022-11-18T13:20:56.917Z,9.60
2022-11-18T13:24:00.921Z,9.20
2022-11-18T13:27:05.147Z,9.82
2022-11-18T13:30:13.421Z,10.20
2022-11-18T13:33:19.527Z,10.70
2022-11-18T13:36:25.475Z,10.20
2022-11-18T13:39:31.300Z,8.95
2022-11-18T13:42:34.978Z,8.32
2022-11-18T13:45:40.663Z,9.13
2022-11-18T13:48:50.993Z,9.95
2022-11-18T13:51:56.262Z,12.90
2022-11-18T13:55:02.347Z,10.55
2022-11-18T13:58:21.854Z,12.20
2022-11-18T14:01:27.743Z,11.40
2022-11-18T14:04:34.733Z,11.75
2022-11-18T14:07:39.023Z,12.25
2022-11-18T14:10:45.477Z,11.45
2022-11-18T14:14:01.261Z,12.43
2022-11-18T14:17:19.433Z,12.60
2022-11-18T14:20:26.075Z,11.05
2022-11-18T14:23:32.114Z,12.07
2022-11-18T14:26:37.965Z,11.75
2022-11-18T14:29:51.280Z,11.48
2022-11-18T14:33:10.900Z,11.60
2022-11-18T14:36:17.966Z,10.48
2022-11-18T14:39:26.776Z,10.57
2022-11-18T14:42:31.280Z,9.57
2022-11-18T14:48:38.980Z,8.38
2022-11-18T14:51:44.804Z,9.80
2022-11-18T14:54:51.525Z,9.93
2022-11-18T14:57:55.205Z,10.45
2022-11-18T15:00:58.971Z,10.55
2022-11-18T15:04:02.683Z,9.90
2022-11-18T15:07:10.218Z,9.98
2022-11-18T15:10:16.663Z,10.73
2022-11-18T15:13:20.304Z,11.20
2022-11-18T15:16:25.865Z,11.20
2022-11-18T15:19:32.293Z,9.65
2022-11-18T15:22:38.085Z,9.63
2022-11-18T15:25:41.907Z,9.32
2022-11-18T15:31:49.890Z,7.80
2022-11-18T15:34:53.634Z,9.60
2022-11-18T15:37:59.248Z,9.65
2022-11-18T15:41:02.966Z,10.68
2022-11-18T15:44:07.110Z,10.52
2022-11-18T15:47:10.836Z,10.13
2022-11-18T15:50:14.686Z,10.05
2022-11-18T15:56:29.113Z,10.98
2022-11-18T15:59:32.912Z,10.35
2022-11-18T16:02:36.567Z,11.52
2022-11-18T16:05:40.217Z,11.88
2022-11-18T16:08:45.926Z,9.50
2022-11-18T16:12:02.760Z,11.68
2022-11-18T16:15:20.554Z,11.40
2022-11-18T16:18:24.811Z,10.80
2022-11-18T16:21:29.811Z,11.25
2022-11-18T16:24:35.569Z,12.32
2022-11-18T16:27:39.250Z,11.30
2022-11-18T16:30:56.065Z,10.35
2022-11-18T16:33:59.749Z,10.75
2022-11-18T16:37:05.537Z,10.32
2022-11-18T16:40:13.010Z,10.50
2022-11-18T16:43:16.669Z,10.60
2022-11-18T16:46:20.322Z,9.90
2022-11-18T16:49:26.201Z,9.68
2022-11-18T16:52:30.110Z,9.88
2022-11-18T16:58:39.711Z,9.68
2022-11-18T17:01:43.872Z,9.38
2022-11-18T17:04:47.869Z,9.95
2022-11-18T17:07:51.631Z,10.20
2022-11-18T17:10:57.204Z,9.20
2022-11-18T17:14:00.933Z,9.57
2022-11-18T17:17:04.697Z,9.90
2022-11-18T17:20:09.400Z,10.73
2022-11-18T17:23:13.178Z,10.38
2022-11-18T17:26:21.750Z,9.63
2022-11-18T17:29:25.481Z,10.07
2022-11-18T17:32:29.192Z,9.68
2022-11-18T17:35:32.848Z,8.90
2022-11-18T17:38:37.845Z,9.23
2022-11-18T17:41:56.559Z,10.85
2022-11-18T17:45:00.274Z,8.00
2022-11-18T17:48:04.002Z,8.18
2022-11-18T17:51:08.203Z,10.55
2022-11-18T17:54:12.162Z,7.57
2022-11-18T17:57:17.757Z,6.55
2022-11-18T18:00:21.889Z,8.70
2022-11-18T18:03:25.605Z,6.75
2022-11-18T18:06:29.307Z,7.07
2022-11-18T18:09:33.002Z,6.40
2022-11-18T18:12:51.905Z,7.00
2022-11-18T18:16:02.829Z,6.93
2022-11-18T18:19:08.089Z,8.15
2022-11-18T18:22:11.780Z,8.13
2022-11-18T18:25:15.533Z,8.35
2022-11-18T18:28:21.135Z,9.15
2022-11-18T18:31:24.841Z,8.48
2022-11-18T18:34:28.484Z,7.82
2022-11-18T18:37:32.132Z,8.55
2022-11-18T18:40:36.028Z,10.10
2022-11-18T18:46:45.584Z,10.05
2022-11-18T18:49:49.215Z,9.75
2022-11-18T18:52:52.905Z,12.38
2022-11-18T18:55:57.603Z,13.38
2022-11-18T18:59:03.643Z,11.60
2022-11-18T19:02:07.336Z,12.80
2022-11-18T19:05:11.391Z,12.50
2022-11-18T19:08:15.039Z,12.50
2022-11-18T19:11:32.759Z,12.35
2022-11-18T19:14:38.480Z,13.55
2022-11-18T19:17:42.663Z,13.15
2022-11-18T19:20:46.376Z,12.90
2022-11-18T19:23:50.153Z,12.32
2022-11-18T19:26:54.346Z,12.77
2022-11-18T19:30:00.070Z,13.63
2022-11-18T19:33:04.901Z,12.75
2022-11-18T19:36:09.772Z,13.70
2022-11-18T19:39:13.578Z,13.38
2022-11-18T19:45:22.636Z,13.10
2022-11-18T19:48:26.968Z,13.30
2022-11-18T19:51:30.822Z,12.07
2022-11-18T19:54:34.601Z,12.90
2022-11-18T19:57:38.267Z,11.93
2022-11-18T20:00:43.919Z,11.35
2022-11-18T20:03:48.957Z,12.20
2022-11-18T20:06:52.774Z,13.07
2022-11-18T20:12:59.992Z,13.15
2022-11-18T20:16:07.480Z,13.10
2022-11-18T20:19:12.874Z,13.48
2022-11-18T20:22:16.716Z,13.68
2022-11-18T20:25:20.567Z,14.77
2022-11-18T20:31:32.578Z,13.00
2022-11-18T20:34:39.242Z,13.20
2022-11-18T20:37:43.818Z,13.05
2022-11-18T20:40:47.566Z,13.65
2022-11-18T20:43:51.729Z,15.10
2022-11-18T20:46:57.329Z,15.10
2022-11-18T20:50:01.038Z,14.10
2022-11-18T20:53:05.038Z,14.55
2022-11-18T20:56:08.913Z,14.00
2022-11-18T21:02:18.033Z,11.57
2022-11-18T21:05:21.942Z,16.02
2022-11-18T21:08:25.669Z,16.17
2022-11-18T21:11:30.230Z,15.38
2022-11-18T21:14:33.967Z,16.25
2022-11-18T21:17:39.567Z,16.55
2022-11-18T21:20:56.427Z,15.93
2022-11-18T21:24:01.661Z,15.65
2022-11-18T21:27:05.967Z,17.23
2022-11-18T21:30:10.881Z,16.55
2022-11-18T21:33:16.482Z,15.25
2022-11-18T21:36:21.131Z,15.85
2022-11-18T21:39:25.420Z,16.42
2022-11-18T21:42:29.125Z,16.30
2022-11-18T21:45:33.357Z,16.17
2022-11-18T21:48:39.693Z,15.55
2022-11-18T21:51:45.034Z,16.42
2022-11-18T21:54:48.720Z,15.93
2022-11-18T21:57:52.407Z,19.23
2022-11-18T22:04:03.337Z,17.50
2022-11-18T22:07:07.209Z,17.92
2022-11-18T22:13:14.813Z,17.80
2022-11-18T22:16:21.496Z,17.88
2022-11-18T22:19:27.119Z,17.52
2022-11-18T22:22:31.316Z,17.98
2022-11-18T22:25:34.968Z,17.13
2022-11-18T22:28:39.593Z,17.85
2022-11-18T22:31:43.384Z,18.50
2022-11-18T22:37:55.634Z,17.27
2022-11-18T22:41:03.005Z,20.13
2022-11-18T22:44:07.989Z,18.00
2022-11-18T22:47:12.202Z,18.73
2022-11-18T22:50:19.848Z,18.95
2022-11-18T22:53:23.502Z,18.08
2022-11-18T22:56:27.200Z,18.90
2022-11-18T22:59:30.844Z,19.80
2022-11-18T23:02:34.525Z,20.58
2022-11-18T23:05:40.135Z,19.17
2022-11-18T23:08:44.515Z,19.38
2022-11-18T23:12:01.339Z,19.15
2022-11-18T23:15:05.461Z,19.55
2022-11-18T23:18:11.837Z,18.98
2022-11-18T23:21:17.847Z,19.15
2022-11-18T23:24:21.835Z,21.38
2022-11-18T23:27:25.633Z,20.50
2022-11-18T23:33:32.792Z,19.08
2022-11-18T23:36:38.868Z,19.63
2022-11-18T23:39:42.520Z,19.65
2022-11-18T23:42:46.299Z,19.25
2022-11-18T23:48:53.451Z,13.65
2022-11-18T23:51:59.076Z,19.45
2022-11-18T23:55:02.723Z,17.17
2022-11-18T23:58:06.425Z,18.05
